sensor_id;sensor_type;location;lat;lon;timestamp;pressure;altitude;pressure_sealevel;temperature;humidity
67013;BME280;53926;47.406;19.188;2022-08-19T00:01:56;99738.34;;;24.98;56.66
67013;BME280;53926;47.406;19.188;2022-08-19T00:04:26;99726.94;;;24.89;57.07
67013;BME280;53926;47.406;19.188;2022-08-19T00:06:53;99724.31;;;24.80;57.26
67013;BME280;53926;47.406;19.188;2022-08-19T00:09:20;99718.34;;;24.83;57.47
67013;BME280;53926;47.406;19.188;2022-08-19T00:11:47;99718.19;;;24.79;57.20
67013;BME280;53926;47.406;19.188;2022-08-19T00:14:14;99718.03;;;24.76;58.07
67013;BME280;53926;47.406;19.188;2022-08-19T00:16:42;99713.78;;;24.84;57.44
67013;BME280;53926;47.406;19.188;2022-08-19T00:19:09;99720.72;;;24.67;57.97
67013;BME280;53926;47.406;19.188;2022-08-19T00:21:36;99715.88;;;24.60;58.72
67013;BME280;53926;47.406;19.188;2022-08-19T00:24:06;99717.72;;;24.69;58.16
67013;BME280;53926;47.406;19.188;2022-08-19T00:26:33;99726.34;;;24.57;58.65
67013;BME280;53926;47.406;19.188;2022-08-19T00:29:00;99723.41;;;24.58;58.79
67013;BME280;53926;47.406;19.188;2022-08-19T00:31:27;99731.81;;;24.52;58.94
67013;BME280;53926;47.406;19.188;2022-08-19T00:33:54;99732.31;;;24.54;58.88
67013;BME280;53926;47.406;19.188;2022-08-19T00:36:20;99740.16;;;24.41;59.32
67013;BME280;53926;47.406;19.188;2022-08-19T00:38:47;99742.19;;;24.44;59.36
67013;BME280;53926;47.406;19.188;2022-08-19T00:41:15;99738.75;;;24.35;59.81
67013;BME280;53926;47.406;19.188;2022-08-19T00:43:49;99745.75;;;24.22;60.74
67013;BME280;53926;47.406;19.188;2022-08-19T00:46:22;99744.81;;;24.09;60.89
67013;BME280;53926;47.406;19.188;2022-08-19T00:48:48;99749.34;;;24.00;61.22
67013;BME280;53926;47.406;19.188;2022-08-19T00:51:15;99740.03;;;23.71;62.41
67013;BME280;53926;47.406;19.188;2022-08-19T00:53:41;99732.16;;;23.57;62.96
67013;BME280;53926;47.406;19.188;2022-08-19T00:56:09;99734.47;;;23.50;63.44
67013;BME280;53926;47.406;19.188;2022-08-19T00:58:36;99733.25;;;23.48;63.32
67013;BME280;53926;47.406;19.188;2022-08-19T01:01:03;99740.41;;;23.38;63.95
67013;BME280;53926;47.406;19.188;2022-08-19T01:03:30;99733.59;;;23.24;64.40
67013;BME280;53926;47.406;19.188;2022-08-19T01:06:16;99725.50;;;23.29;64.30
67013;BME280;53926;47.406;19.188;2022-08-19T01:08:46;99715.69;;;23.29;64.03
67013;BME280;53926;47.406;19.188;2022-08-19T01:11:15;99708.59;;;23.16;64.20
67013;BME280;53926;47.406;19.188;2022-08-19T01:13:42;99722.00;;;23.11;65.22
67013;BME280;53926;47.406;19.188;2022-08-19T01:16:15;99721.28;;;23.28;64.59
67013;BME280;53926;47.406;19.188;2022-08-19T01:18:42;99727.63;;;23.18;65.07
67013;BME280;53926;47.406;19.188;2022-08-19T01:21:10;99735.13;;;23.16;64.87
67013;BME280;53926;47.406;19.188;2022-08-19T01:23:42;99733.22;;;23.08;65.45
67013;BME280;53926;47.406;19.188;2022-08-19T01:26:11;99729.81;;;22.84;66.37
67013;BME280;53926;47.406;19.188;2022-08-19T01:28:38;99717.53;;;22.75;66.54
67013;BME280;53926;47.406;19.188;2022-08-19T01:31:08;99717.16;;;22.90;65.73
67013;BME280;53926;47.406;19.188;2022-08-19T01:33:54;99723.09;;;22.87;66.72
67013;BME280;53926;47.406;19.188;2022-08-19T01:36:22;99728.28;;;22.92;66.01
67013;BME280;53926;47.406;19.188;2022-08-19T01:38:49;99721.69;;;22.90;66.43
67013;BME280;53926;47.406;19.188;2022-08-19T01:41:17;99732.16;;;22.86;66.33
67013;BME280;53926;47.406;19.188;2022-08-19T01:43:43;99720.44;;;22.87;65.93
67013;BME280;53926;47.406;19.188;2022-08-19T01:46:31;99709.47;;;22.80;66.18
67013;BME280;53926;47.406;19.188;2022-08-19T01:48:58;99714.81;;;22.89;65.55
67013;BME280;53926;47.406;19.188;2022-08-19T01:51:26;99711.47;;;23.06;64.65
67013;BME280;53926;47.406;19.188;2022-08-19T01:53:53;99709.81;;;23.10;64.59
67013;BME280;53926;47.406;19.188;2022-08-19T01:56:20;99711.09;;;23.21;63.94
67013;BME280;53926;47.406;19.188;2022-08-19T01:58:49;99707.53;;;23.26;63.90
67013;BME280;53926;47.406;19.188;2022-08-19T02:01:17;99700.47;;;23.21;64.17
67013;BME280;53926;47.406;19.188;2022-08-19T02:03:44;99695.44;;;23.11;64.75
67013;BME280;53926;47.406;19.188;2022-08-19T02:06:10;99684.97;;;23.14;64.29
67013;BME280;53926;47.406;19.188;2022-08-19T02:08:37;99689.84;;;23.12;64.70
67013;BME280;53926;47.406;19.188;2022-08-19T02:11:05;99697.66;;;23.17;64.11
67013;BME280;53926;47.406;19.188;2022-08-19T02:13:31;99689.03;;;23.12;64.34
67013;BME280;53926;47.406;19.188;2022-08-19T02:15:58;99690.19;;;23.28;63.67
67013;BME280;53926;47.406;19.188;2022-08-19T02:18:25;99684.72;;;23.33;63.41
67013;BME280;53926;47.406;19.188;2022-08-19T02:20:53;99675.66;;;23.26;63.60
67013;BME280;53926;47.406;19.188;2022-08-19T02:23:19;99669.28;;;23.35;63.20
67013;BME280;53926;47.406;19.188;2022-08-19T02:25:47;99670.22;;;23.39;63.14
67013;BME280;53926;47.406;19.188;2022-08-19T02:28:14;99663.97;;;23.35;63.55
67013;BME280;53926;47.406;19.188;2022-08-19T02:30:44;99647.88;;;23.41;63.01
67013;BME280;53926;47.406;19.188;2022-08-19T02:33:11;99646.78;;;23.42;62.88
67013;BME280;53926;47.406;19.188;2022-08-19T02:35:40;99645.88;;;23.46;62.99
67013;BME280;53926;47.406;19.188;2022-08-19T02:38:06;99654.94;;;23.54;62.54
67013;BME280;53926;47.406;19.188;2022-08-19T02:40:53;99658.06;;;23.56;62.39
67013;BME280;53926;47.406;19.188;2022-08-19T02:43:20;99671.31;;;23.38;63.24
67013;BME280;53926;47.406;19.188;2022-08-19T02:45:47;99664.91;;;23.39;62.91
67013;BME280;53926;47.406;19.188;2022-08-19T02:48:17;99668.06;;;23.42;63.38
67013;BME280;53926;47.406;19.188;2022-08-19T02:50:47;99668.97;;;23.46;63.26
67013;BME280;53926;47.406;19.188;2022-08-19T02:53:18;99682.25;;;23.46;62.97
67013;BME280;53926;47.406;19.188;2022-08-19T02:55:45;99682.88;;;23.34;63.61
67013;BME280;53926;47.406;19.188;2022-08-19T02:58:13;99690.03;;;23.25;63.74
67013;BME280;53926;47.406;19.188;2022-08-19T03:00:47;99689.41;;;23.28;63.92
67013;BME280;53926;47.406;19.188;2022-08-19T03:03:16;99695.16;;;23.21;64.46
67013;BME280;53926;47.406;19.188;2022-08-19T03:05:43;99699.75;;;23.07;64.79
67013;BME280;53926;47.406;19.188;2022-08-19T03:08:21;99701.25;;;22.90;65.42
67013;BME280;53926;47.406;19.188;2022-08-19T03:10:48;99707.50;;;22.94;65.34
67013;BME280;53926;47.406;19.188;2022-08-19T03:13:15;99706.44;;;22.95;65.25
67013;BME280;53926;47.406;19.188;2022-08-19T03:15:43;99705.91;;;22.84;66.07
67013;BME280;53926;47.406;19.188;2022-08-19T03:18:10;99704.34;;;22.83;65.90
67013;BME280;53926;47.406;19.188;2022-08-19T03:20:42;99711.53;;;22.83;65.82
67013;BME280;53926;47.406;19.188;2022-08-19T03:23:08;99720.16;;;22.66;66.44
67013;BME280;53926;47.406;19.188;2022-08-19T03:25:38;99725.16;;;22.67;66.75
67013;BME280;53926;47.406;19.188;2022-08-19T03:28:07;99730.22;;;22.78;66.29
67013;BME280;53926;47.406;19.188;2022-08-19T03:30:33;99727.09;;;22.76;66.38
67013;BME280;53926;47.406;19.188;2022-08-19T03:33:00;99714.28;;;22.78;66.31
67013;BME280;53926;47.406;19.188;2022-08-19T03:35:27;99717.63;;;22.61;66.73
67013;BME280;53926;47.406;19.188;2022-08-19T03:37:53;99718.59;;;22.65;66.99
67013;BME280;53926;47.406;19.188;2022-08-19T03:40:20;99716.06;;;22.60;67.18
67013;BME280;53926;47.406;19.188;2022-08-19T03:42:46;99721.41;;;22.68;66.62
67013;BME280;53926;47.406;19.188;2022-08-19T03:45:14;99726.78;;;22.77;66.37
67013;BME280;53926;47.406;19.188;2022-08-19T03:47:41;99719.28;;;22.79;66.28
67013;BME280;53926;47.406;19.188;2022-08-19T03:50:07;99718.37;;;22.84;66.01
67013;BME280;53926;47.406;19.188;2022-08-19T03:52:35;99723.44;;;22.94;66.07
67013;BME280;53926;47.406;19.188;2022-08-19T03:55:02;99725.50;;;22.97;66.14
67013;BME280;53926;47.406;19.188;2022-08-19T03:57:29;99720.78;;;22.94;66.18
67013;BME280;53926;47.406;19.188;2022-08-19T03:59:57;99723.44;;;22.94;65.56
67013;BME280;53926;47.406;19.188;2022-08-19T04:02:38;99729.97;;;23.11;65.58
67013;BME280;53926;47.406;19.188;2022-08-19T04:05:05;99732.72;;;23.06;65.70
67013;BME280;53926;47.406;19.188;2022-08-19T04:07:31;99739.22;;;23.22;67.06
67013;BME280;53926;47.406;19.188;2022-08-19T04:09:58;99744.09;;;23.29;66.64
67013;BME280;53926;47.406;19.188;2022-08-19T04:12:25;99747.41;;;23.34;66.67
67013;BME280;53926;47.406;19.188;2022-08-19T04:14:51;99747.09;;;23.36;67.48
67013;BME280;53926;47.406;19.188;2022-08-19T04:17:18;99752.47;;;23.45;67.64
67013;BME280;53926;47.406;19.188;2022-08-19T04:19:44;99753.06;;;23.42;70.26
67013;BME280;53926;47.406;19.188;2022-08-19T04:22:11;99759.59;;;23.35;71.41
67013;BME280;53926;47.406;19.188;2022-08-19T04:24:37;99773.19;;;23.34;66.82
67013;BME280;53926;47.406;19.188;2022-08-19T04:27:04;99778.31;;;23.30;66.34
67013;BME280;53926;47.406;19.188;2022-08-19T04:29:32;99757.66;;;23.18;66.27
67013;BME280;53926;47.406;19.188;2022-08-19T04:31:58;99768.75;;;23.20;66.12
67013;BME280;53926;47.406;19.188;2022-08-19T04:34:34;99757.78;;;23.53;65.15
67013;BME280;53926;47.406;19.188;2022-08-19T04:37:22;99759.97;;;23.91;64.57
67013;BME280;53926;47.406;19.188;2022-08-19T04:39:49;99765.31;;;24.18;65.06
67013;BME280;53926;47.406;19.188;2022-08-19T04:42:34;99768.31;;;24.25;63.94
67013;BME280;53926;47.406;19.188;2022-08-19T04:45:12;99777.69;;;24.49;64.87
67013;BME280;53926;47.406;19.188;2022-08-19T04:47:39;99768.34;;;24.60;62.21
67013;BME280;53926;47.406;19.188;2022-08-19T04:50:25;99778.78;;;24.83;59.63
67013;BME280;53926;47.406;19.188;2022-08-19T04:52:51;99783.09;;;25.31;60.51
67013;BME280;53926;47.406;19.188;2022-08-19T04:55:18;99777.66;;;25.57;58.60
67013;BME280;53926;47.406;19.188;2022-08-19T04:57:45;99770.34;;;25.75;56.19
67013;BME280;53926;47.406;19.188;2022-08-19T05:00:11;99774.03;;;25.92;55.75
67013;BME280;53926;47.406;19.188;2022-08-19T05:02:38;99767.41;;;25.98;55.44
67013;BME280;53926;47.406;19.188;2022-08-19T05:05:05;99781.66;;;26.65;53.39
67013;BME280;53926;47.406;19.188;2022-08-19T05:07:32;99784.88;;;27.38;53.51
67013;BME280;53926;47.406;19.188;2022-08-19T05:09:59;99778.88;;;27.65;51.09
67013;BME280;53926;47.406;19.188;2022-08-19T05:12:26;99777.09;;;27.45;50.14
67013;BME280;53926;47.406;19.188;2022-08-19T05:14:55;99783.59;;;28.22;50.24
67013;BME280;53926;47.406;19.188;2022-08-19T05:17:23;99781.09;;;27.88;49.26
67013;BME280;53926;47.406;19.188;2022-08-19T05:19:53;99791.84;;;28.57;46.89
67013;BME280;53926;47.406;19.188;2022-08-19T05:22:38;99775.72;;;28.41;48.66
67013;BME280;53926;47.406;19.188;2022-08-19T05:25:07;99780.19;;;28.94;46.29
67013;BME280;53926;47.406;19.188;2022-08-19T05:27:38;99773.50;;;28.71;46.15
67013;BME280;53926;47.406;19.188;2022-08-19T05:30:05;99775.19;;;28.35;48.76
67013;BME280;53926;47.406;19.188;2022-08-19T05:32:32;99783.59;;;28.62;46.90
67013;BME280;53926;47.406;19.188;2022-08-19T05:34:58;99777.94;;;28.51;47.47
67013;BME280;53926;47.406;19.188;2022-08-19T05:37:25;99775.03;;;29.17;44.87
67013;BME280;53926;47.406;19.188;2022-08-19T05:39:53;99778.84;;;29.64;43.62
67013;BME280;53926;47.406;19.188;2022-08-19T05:42:21;99768.06;;;29.28;44.82
67013;BME280;53926;47.406;19.188;2022-08-19T05:44:49;99777.03;;;29.20;45.01
67013;BME280;53926;47.406;19.188;2022-08-19T05:47:16;99778.44;;;30.17;42.20
67013;BME280;53926;47.406;19.188;2022-08-19T05:49:43;99775.53;;;29.70;43.49
67013;BME280;53926;47.406;19.188;2022-08-19T05:52:11;99777.69;;;31.21;40.74
67013;BME280;53926;47.406;19.188;2022-08-19T05:54:38;99783.12;;;30.82;41.20
67013;BME280;53926;47.406;19.188;2022-08-19T05:57:06;99782.00;;;31.26;40.59
67013;BME280;53926;47.406;19.188;2022-08-19T05:59:36;99778.81;;;31.20;39.89
67013;BME280;53926;47.406;19.188;2022-08-19T06:02:04;99779.31;;;30.21;41.96
67013;BME280;53926;47.406;19.188;2022-08-19T06:04:32;99776.59;;;30.01;41.97
67013;BME280;53926;47.406;19.188;2022-08-19T06:06:59;99786.56;;;29.33;43.71
67013;BME280;53926;47.406;19.188;2022-08-19T06:09:38;99793.22;;;30.65;41.20
67013;BME280;53926;47.406;19.188;2022-08-19T06:12:05;99787.50;;;32.47;38.38
67013;BME280;53926;47.406;19.188;2022-08-19T06:14:32;99786.31;;;30.88;40.68
67013;BME280;53926;47.406;19.188;2022-08-19T06:17:05;99781.16;;;30.79;41.05
67013;BME280;53926;47.406;19.188;2022-08-19T06:19:32;99779.50;;;30.31;41.61
67013;BME280;53926;47.406;19.188;2022-08-19T06:21:59;99786.75;;;30.47;41.35
67013;BME280;53926;47.406;19.188;2022-08-19T06:24:28;99783.12;;;31.75;38.47
67013;BME280;53926;47.406;19.188;2022-08-19T06:26:56;99792.44;;;31.81;38.50
67013;BME280;53926;47.406;19.188;2022-08-19T06:29:27;99789.94;;;31.95;38.68
67013;BME280;53926;47.406;19.188;2022-08-19T06:31:54;99777.75;;;31.51;39.44
67013;BME280;53926;47.406;19.188;2022-08-19T06:34:22;99771.53;;;31.70;39.43
67013;BME280;53926;47.406;19.188;2022-08-19T06:36:49;99771.38;;;33.40;35.72
67013;BME280;53926;47.406;19.188;2022-08-19T06:39:18;99771.94;;;33.12;36.14
67013;BME280;53926;47.406;19.188;2022-08-19T06:41:46;99760.03;;;32.04;38.14
67013;BME280;53926;47.406;19.188;2022-08-19T06:44:20;99758.59;;;31.30;40.28
67013;BME280;53926;47.406;19.188;2022-08-19T06:46:50;99766.16;;;32.01;37.74
67013;BME280;53926;47.406;19.188;2022-08-19T06:49:20;99759.84;;;30.90;39.95
67013;BME280;53926;47.406;19.188;2022-08-19T06:51:47;99763.72;;;31.12;39.96
67013;BME280;53926;47.406;19.188;2022-08-19T06:54:15;99778.69;;;31.13;39.92
67013;BME280;53926;47.406;19.188;2022-08-19T06:56:44;99768.06;;;32.31;37.42
67013;BME280;53926;47.406;19.188;2022-08-19T06:59:13;99769.94;;;33.57;36.53
67013;BME280;53926;47.406;19.188;2022-08-19T07:01:44;99775.66;;;32.21;37.22
67013;BME280;53926;47.406;19.188;2022-08-19T07:04:20;99766.31;;;32.87;36.85
67013;BME280;53926;47.406;19.188;2022-08-19T07:06:47;99760.22;;;33.42;35.83
67013;BME280;53926;47.406;19.188;2022-08-19T07:09:20;99756.41;;;32.98;35.60
67013;BME280;53926;47.406;19.188;2022-08-19T07:11:51;99753.78;;;32.64;36.34
67013;BME280;53926;47.406;19.188;2022-08-19T07:14:19;99751.00;;;33.50;35.54
67013;BME280;53926;47.406;19.188;2022-08-19T07:16:47;99765.37;;;33.65;35.01
67013;BME280;53926;47.406;19.188;2022-08-19T07:19:14;99781.97;;;34.59;33.12
67013;BME280;53926;47.406;19.188;2022-08-19T07:21:43;99790.56;;;35.33;32.90
67013;BME280;53926;47.406;19.188;2022-08-19T07:24:10;99796.31;;;35.02;32.71
67013;BME280;53926;47.406;19.188;2022-08-19T07:26:38;99801.34;;;35.47;31.56
67013;BME280;53926;47.406;19.188;2022-08-19T07:29:07;99793.25;;;34.93;32.84
67013;BME280;53926;47.406;19.188;2022-08-19T07:31:36;99801.22;;;36.01;30.94
67013;BME280;53926;47.406;19.188;2022-08-19T07:34:04;99803.97;;;36.75;29.29
67013;BME280;53926;47.406;19.188;2022-08-19T07:36:35;99792.44;;;35.65;31.09
67013;BME280;53926;47.406;19.188;2022-08-19T07:39:04;99799.75;;;37.23;28.81
67013;BME280;53926;47.406;19.188;2022-08-19T07:41:34;99794.16;;;36.32;29.66
67013;BME280;53926;47.406;19.188;2022-08-19T07:44:01;99804.22;;;36.25;29.45
67013;BME280;53926;47.406;19.188;2022-08-19T07:46:33;99797.03;;;36.74;28.58
67013;BME280;53926;47.406;19.188;2022-08-19T07:49:00;99796.19;;;37.30;29.42
67013;BME280;53926;47.406;19.188;2022-08-19T07:51:26;99792.06;;;37.90;27.09
67013;BME280;53926;47.406;19.188;2022-08-19T07:54:02;99789.25;;;35.95;29.35
67013;BME280;53926;47.406;19.188;2022-08-19T07:56:29;99787.31;;;36.73;28.60
67013;BME280;53926;47.406;19.188;2022-08-19T07:58:56;99771.06;;;38.25;26.92
67013;BME280;53926;47.406;19.188;2022-08-19T08:01:23;99776.91;;;37.93;27.01
67013;BME280;53926;47.406;19.188;2022-08-19T08:03:51;99767.75;;;38.69;25.86
67013;BME280;53926;47.406;19.188;2022-08-19T08:06:37;99786.63;;;36.58;28.67
67013;BME280;53926;47.406;19.188;2022-08-19T08:09:24;99780.34;;;37.63;26.60
67013;BME280;53926;47.406;19.188;2022-08-19T08:11:56;99793.13;;;38.00;26.90
67013;BME280;53926;47.406;19.188;2022-08-19T08:14:28;99800.06;;;38.36;27.24
67013;BME280;53926;47.406;19.188;2022-08-19T08:17:00;99803.87;;;38.42;25.48
67013;BME280;53926;47.406;19.188;2022-08-19T08:19:27;99801.56;;;37.75;26.49
67013;BME280;53926;47.406;19.188;2022-08-19T08:21:55;99791.78;;;36.38;27.66
67013;BME280;53926;47.406;19.188;2022-08-19T08:24:22;99801.28;;;37.24;27.34
67013;BME280;53926;47.406;19.188;2022-08-19T08:26:53;99805.31;;;37.88;26.57
67013;BME280;53926;47.406;19.188;2022-08-19T08:29:23;99807.75;;;37.37;28.55
67013;BME280;53926;47.406;19.188;2022-08-19T08:31:51;99808.09;;;37.43;27.02
67013;BME280;53926;47.406;19.188;2022-08-19T08:34:25;99801.88;;;37.43;27.39
67013;BME280;53926;47.406;19.188;2022-08-19T08:36:51;99802.28;;;37.41;26.56
67013;BME280;53926;47.406;19.188;2022-08-19T08:39:19;99802.53;;;37.12;27.61
67013;BME280;53926;47.406;19.188;2022-08-19T08:44:40;99804.44;;;37.61;27.28
67013;BME280;53926;47.406;19.188;2022-08-19T08:47:11;99796.91;;;36.89;27.29
67013;BME280;53926;47.406;19.188;2022-08-19T08:54:44;99806.72;;;35.87;28.90
67013;BME280;53926;47.406;19.188;2022-08-19T08:59:50;99798.91;;;36.03;30.06
67013;BME280;53926;47.406;19.188;2022-08-19T09:02:18;99777.09;;;36.32;28.88
67013;BME280;53926;47.406;19.188;2022-08-19T09:04:44;99763.53;;;36.32;29.30
67013;BME280;53926;47.406;19.188;2022-08-19T09:07:22;99756.44;;;35.68;29.93
67013;BME280;53926;47.406;19.188;2022-08-19T09:15:08;99765.53;;;36.28;29.67
67013;BME280;53926;47.406;19.188;2022-08-19T09:17:35;99772.59;;;35.96;28.99
67013;BME280;53926;47.406;19.188;2022-08-19T09:22:35;99769.41;;;36.27;30.13
67013;BME280;53926;47.406;19.188;2022-08-19T09:25:02;99763.75;;;36.59;28.00
67013;BME280;53926;47.406;19.188;2022-08-19T09:27:29;99750.44;;;36.16;28.81
67013;BME280;53926;47.406;19.188;2022-08-19T09:30:17;99748.87;;;36.29;28.38
67013;BME280;53926;47.406;19.188;2022-08-19T09:32:44;99751.69;;;36.67;28.57
67013;BME280;53926;47.406;19.188;2022-08-19T09:35:12;99743.22;;;36.58;28.63
67013;BME280;53926;47.406;19.188;2022-08-19T09:37:39;99750.37;;;36.30;28.67
67013;BME280;53926;47.406;19.188;2022-08-19T09:40:06;99752.13;;;36.62;28.60
67013;BME280;53926;47.406;19.188;2022-08-19T09:42:34;99760.56;;;36.75;28.91
67013;BME280;53926;47.406;19.188;2022-08-19T09:45:01;99741.34;;;36.51;28.19
67013;BME280;53926;47.406;19.188;2022-08-19T09:47:35;99740.56;;;36.55;29.72
67013;BME280;53926;47.406;19.188;2022-08-19T09:50:06;99734.53;;;36.85;28.23
67013;BME280;53926;47.406;19.188;2022-08-19T09:52:33;99723.69;;;36.85;27.95
67013;BME280;53926;47.406;19.188;2022-08-19T09:55:04;99714.56;;;36.61;27.18
67013;BME280;53926;47.406;19.188;2022-08-19T09:57:33;99717.84;;;36.34;27.65
67013;BME280;53926;47.406;19.188;2022-08-19T10:00:00;99715.88;;;36.42;27.88
67013;BME280;53926;47.406;19.188;2022-08-19T10:02:26;99708.38;;;35.97;28.14
67013;BME280;53926;47.406;19.188;2022-08-19T10:04:54;99695.78;;;36.36;28.66
67013;BME280;53926;47.406;19.188;2022-08-19T10:07:48;99696.16;;;37.28;27.09
67013;BME280;53926;47.406;19.188;2022-08-19T10:10:14;99692.69;;;37.28;26.51
67013;BME280;53926;47.406;19.188;2022-08-19T10:12:41;99686.47;;;37.62;27.11
67013;BME280;53926;47.406;19.188;2022-08-19T10:15:14;99686.81;;;37.64;25.98
67013;BME280;53926;47.406;19.188;2022-08-19T10:17:41;99697.47;;;37.51;25.93
67013;BME280;53926;47.406;19.188;2022-08-19T10:20:20;99693.94;;;37.50;27.01
67013;BME280;53926;47.406;19.188;2022-08-19T10:22:47;99689.41;;;38.33;25.45
67013;BME280;53926;47.406;19.188;2022-08-19T10:25:17;99687.22;;;37.93;25.46
67013;BME280;53926;47.406;19.188;2022-08-19T10:27:43;99691.16;;;38.19;24.38
67013;BME280;53926;47.406;19.188;2022-08-19T10:30:16;99695.22;;;37.42;25.80
67013;BME280;53926;47.406;19.188;2022-08-19T10:32:45;99687.56;;;38.26;25.42
67013;BME280;53926;47.406;19.188;2022-08-19T10:35:12;99690.63;;;38.01;24.01
67013;BME280;53926;47.406;19.188;2022-08-19T10:37:41;99687.63;;;38.22;24.02
67013;BME280;53926;47.406;19.188;2022-08-19T10:40:23;99691.69;;;38.07;24.14
67013;BME280;53926;47.406;19.188;2022-08-19T10:42:49;99689.81;;;38.78;23.78
67013;BME280;53926;47.406;19.188;2022-08-19T10:45:16;99689.16;;;38.23;24.61
67013;BME280;53926;47.406;19.188;2022-08-19T10:47:43;99680.72;;;38.14;24.41
67013;BME280;53926;47.406;19.188;2022-08-19T10:50:09;99692.12;;;38.33;24.36
67013;BME280;53926;47.406;19.188;2022-08-19T10:52:55;99684.66;;;38.64;23.42
67013;BME280;53926;47.406;19.188;2022-08-19T10:55:23;99692.09;;;38.05;23.79
67013;BME280;53926;47.406;19.188;2022-08-19T10:58:12;99680.28;;;38.90;23.45
67013;BME280;53926;47.406;19.188;2022-08-19T11:00:39;99688.09;;;38.41;23.86
67013;BME280;53926;47.406;19.188;2022-08-19T11:03:06;99680.34;;;38.67;23.28
67013;BME280;53926;47.406;19.188;2022-08-19T11:05:35;99683.31;;;38.96;23.26
67013;BME280;53926;47.406;19.188;2022-08-19T11:08:05;99691.41;;;39.80;23.52
67013;BME280;53926;47.406;19.188;2022-08-19T11:10:49;99693.59;;;38.85;22.98
67013;BME280;53926;47.406;19.188;2022-08-19T11:13:15;99681.97;;;38.60;22.95
67013;BME280;53926;47.406;19.188;2022-08-19T11:15:42;99681.25;;;38.80;23.37
67013;BME280;53926;47.406;19.188;2022-08-19T11:18:09;99687.97;;;39.39;22.08
67013;BME280;53926;47.406;19.188;2022-08-19T11:20:38;99677.62;;;39.30;22.71
67013;BME280;53926;47.406;19.188;2022-08-19T11:23:05;99681.16;;;39.07;22.75
67013;BME280;53926;47.406;19.188;2022-08-19T11:25:32;99679.13;;;38.91;23.16
67013;BME280;53926;47.406;19.188;2022-08-19T11:27:59;99679.38;;;39.21;23.14
67013;BME280;53926;47.406;19.188;2022-08-19T11:30:25;99676.88;;;39.06;22.38
67013;BME280;53926;47.406;19.188;2022-08-19T11:32:53;99687.09;;;39.82;22.28
67013;BME280;53926;47.406;19.188;2022-08-19T11:35:20;99681.59;;;39.26;22.42
67013;BME280;53926;47.406;19.188;2022-08-19T11:37:47;99688.63;;;39.83;21.82
67013;BME280;53926;47.406;19.188;2022-08-19T11:40:13;99679.38;;;39.21;22.89
67013;BME280;53926;47.406;19.188;2022-08-19T11:42:40;99683.25;;;38.99;21.85
67013;BME280;53926;47.406;19.188;2022-08-19T11:45:26;99666.75;;;38.39;22.93
67013;BME280;53926;47.406;19.188;2022-08-19T11:47:54;99668.63;;;39.13;22.70
67013;BME280;53926;47.406;19.188;2022-08-19T11:50:21;99671.50;;;38.83;22.22
67013;BME280;53926;47.406;19.188;2022-08-19T11:52:49;99664.00;;;39.87;22.52
67013;BME280;53926;47.406;19.188;2022-08-19T11:55:17;99663.97;;;39.50;22.23
67013;BME280;53926;47.406;19.188;2022-08-19T11:57:43;99658.44;;;40.44;21.93
67013;BME280;53926;47.406;19.188;2022-08-19T12:00:10;99666.22;;;39.76;21.30
67013;BME280;53926;47.406;19.188;2022-08-19T12:02:39;99652.88;;;38.81;22.89
67013;BME280;53926;47.406;19.188;2022-08-19T12:05:05;99647.34;;;40.01;20.99
67013;BME280;53926;47.406;19.188;2022-08-19T12:07:38;99646.34;;;40.12;21.64
67013;BME280;53926;47.406;19.188;2022-08-19T12:10:04;99652.69;;;39.12;21.79
67013;BME280;53926;47.406;19.188;2022-08-19T12:12:31;99646.50;;;39.31;21.95
67013;BME280;53926;47.406;19.188;2022-08-19T12:14:57;99651.16;;;39.11;22.21
67013;BME280;53926;47.406;19.188;2022-08-19T12:17:27;99657.37;;;39.31;21.93
67013;BME280;53926;47.406;19.188;2022-08-19T12:19:54;99654.03;;;38.80;22.74
67013;BME280;53926;47.406;19.188;2022-08-19T12:22:21;99651.31;;;39.24;23.67
67013;BME280;53926;47.406;19.188;2022-08-19T12:24:48;99650.97;;;38.78;22.30
67013;BME280;53926;47.406;19.188;2022-08-19T12:27:16;99654.09;;;39.60;21.94
67013;BME280;53926;47.406;19.188;2022-08-19T12:30:03;99655.09;;;40.52;20.69
67013;BME280;53926;47.406;19.188;2022-08-19T12:32:30;99652.72;;;40.21;21.47
67013;BME280;53926;47.406;19.188;2022-08-19T12:34:57;99651.94;;;40.83;20.79
67013;BME280;53926;47.406;19.188;2022-08-19T12:37:23;99650.37;;;40.99;20.75
67013;BME280;53926;47.406;19.188;2022-08-19T12:39:50;99649.66;;;40.82;20.35
67013;BME280;53926;47.406;19.188;2022-08-19T12:42:16;99642.31;;;40.95;20.25
67013;BME280;53926;47.406;19.188;2022-08-19T12:44:44;99640.44;;;40.46;21.03
67013;BME280;53926;47.406;19.188;2022-08-19T12:47:12;99638.75;;;40.03;20.75
67013;BME280;53926;47.406;19.188;2022-08-19T12:49:41;99639.03;;;40.71;21.31
67013;BME280;53926;47.406;19.188;2022-08-19T12:52:20;99637.72;;;40.13;20.62
67013;BME280;53926;47.406;19.188;2022-08-19T12:54:49;99634.69;;;39.18;21.96
67013;BME280;53926;47.406;19.188;2022-08-19T12:57:19;99631.00;;;39.45;21.85
67013;BME280;53926;47.406;19.188;2022-08-19T12:59:51;99616.81;;;39.90;21.12
67013;BME280;53926;47.406;19.188;2022-08-19T13:02:17;99623.28;;;39.80;21.88
67013;BME280;53926;47.406;19.188;2022-08-19T13:04:44;99614.38;;;40.45;22.11
67013;BME280;53926;47.406;19.188;2022-08-19T13:07:10;99617.44;;;41.06;21.31
67013;BME280;53926;47.406;19.188;2022-08-19T13:09:37;99609.78;;;40.71;21.31
67013;BME280;53926;47.406;19.188;2022-08-19T13:12:06;99605.94;;;40.98;19.52
67013;BME280;53926;47.406;19.188;2022-08-19T13:14:34;99610.13;;;41.16;20.42
67013;BME280;53926;47.406;19.188;2022-08-19T13:17:04;99607.88;;;40.39;21.15
67013;BME280;53926;47.406;19.188;2022-08-19T13:19:30;99610.59;;;39.73;21.84